Time;durP1;ratioP1;P1;durP2;ratioP2;P2;SDS_P1;SDS_P2;PMS_P1;PMS_P2;Temp;Humidity;BMP_temperature;BMP_pressure;BME280_temperature;BME280_humidity;BME280_pressure;Samples;Min_cycle;Max_cycle;Signal;HPM_P1;HPM_P2
2021/06/24 00:01:20;;;;;;;5.60;4.97;;;17.40;27.20;;;;;;6108440;23;20399;-63
2021/06/24 00:03:45;;;;;;;7.07;5.23;;;17.50;1.00;;;;;;6108636;23;20159;-63
2021/06/24 00:06:11;;;;;;;7.47;4.70;;;17.50;1.00;;;;;;6108567;23;20159;-63
2021/06/24 00:08:37;;;;;;;5.90;5.40;;;17.40;1.00;;;;;;6098861;23;20474;-63
2021/06/24 00:11:05;;;;;;;5.73;4.23;;;17.30;1.00;;;;;;6098987;23;20226;-63
2021/06/24 00:13:31;;;;;;;5.10;4.60;;;17.20;1.00;;;;;;6098984;23;20680;-63
2021/06/24 00:15:57;;;;;;;7.50;5.00;;;17.10;65.10;;;;;;6108455;23;20423;-64
2021/06/24 00:18:23;;;;;;;5.03;4.57;;;17.10;99.90;;;;;;6108131;23;20413;-64
2021/06/24 00:20:50;;;;;;;9.00;5.07;;;17.40;59.80;;;;;;6108329;23;20159;-64
2021/06/24 00:23:16;;;;;;;9.33;4.70;;;17.50;1.00;;;;;;6108414;23;20159;-67
2021/06/24 00:25:42;;;;;;;5.07;4.37;;;17.40;1.00;;;;;;6098562;23;20494;-67
2021/06/24 00:28:10;;;;;;;6.70;5.47;;;17.20;2.60;;;;;;6108302;23;20522;-67
2021/06/24 00:30:37;;;;;;;5.67;5.03;;;17.20;29.00;;;;;;6097193;23;20396;-67
2021/06/24 00:33:03;;;;;;;5.90;4.90;;;16.90;58.00;;;;;;6098721;23;20392;-67
2021/06/24 00:35:29;;;;;;;4.90;4.40;;;16.70;99.90;;;;;;6096829;23;20846;-67
2021/06/24 00:37:55;;;;;;;6.23;5.40;;;17.00;99.90;;;;;;6108085;23;20454;-67
2021/06/24 00:40:22;;;;;;;7.57;4.90;;;17.20;31.90;;;;;;6107993;23;20606;-68
2021/06/24 00:42:48;;;;;;;6.30;5.30;;;17.40;3.90;;;;;;6108264;23;20202;-68
2021/06/24 00:45:14;;;;;;;5.10;4.60;;;17.20;1.00;;;;;;6108088;23;20929;-68
2021/06/24 00:47:40;;;;;;;5.60;4.07;;;17.10;4.40;;;;;;6107867;23;20534;-68
2021/06/24 00:50:07;;;;;;;4.90;4.37;;;17.00;49.10;;;;;;6121225;23;20399;-68
2021/06/24 00:52:33;;;;;;;6.70;4.70;;;17.20;8.00;;;;;;6098164;23;20922;-68
2021/06/24 00:54:59;;;;;;;7.17;4.57;;;17.30;1.00;;;;;;6107160;23;20387;-67
2021/06/24 00:57:26;;;;;;;6.63;4.47;;;17.10;1.00;;;;;;6107950;23;20395;-69
2021/06/24 00:59:52;;;;;;;6.03;4.83;;;17.10;1.00;;;;;;6108445;23;20750;-62
2021/06/24 01:02:18;;;;;;;6.67;4.00;;;17.20;1.00;;;;;;6108089;23;20387;-63
2021/06/24 01:04:44;;;;;;;4.67;4.13;;;17.30;1.00;;;;;;6098734;23;20407;-61
2021/06/24 01:07:11;;;;;;;5.90;3.83;;;17.50;1.00;;;;;;6108208;23;20190;-61
2021/06/24 01:09:37;;;;;;;7.90;4.60;;;17.60;1.00;;;;;;6108596;23;20155;-65
2021/06/24 01:12:06;;;;;;;5.63;4.30;;;17.50;1.00;;;;;;6097807;23;20414;-62
2021/06/24 01:14:32;;;;;;;6.47;3.93;;;17.20;1.00;;;;;;6098249;23;20155;-64
2021/06/24 01:16:58;;;;;;;7.00;4.30;;;17.00;1.00;;;;;;6108015;23;20402;-65
2021/06/24 01:19:24;;;;;;;8.20;4.43;;;16.90;1.00;;;;;;6107875;23;20932;-65
2021/06/24 01:21:50;;;;;;;7.57;4.63;;;16.90;27.30;;;;;;6108185;23;20238;-65
2021/06/24 01:24:16;;;;;;;5.00;4.40;;;16.70;23.50;;;;;;6107788;23;20155;-61
2021/06/24 01:26:43;;;;;;;7.63;4.33;;;16.70;96.60;;;;;;6098343;23;20416;-61
2021/06/24 01:29:10;;;;;;;5.80;4.87;;;16.90;67.50;;;;;;6107771;23;20396;-66
2021/06/24 01:31:36;;;;;;;5.93;4.43;;;16.80;99.90;;;;;;6096914;23;20400;-67
2021/06/24 01:34:10;;;;;;;8.13;5.67;;;16.80;95.70;;;;;;6107619;23;20473;-67
2021/06/24 01:36:36;;;;;;;4.93;4.53;;;16.60;99.90;;;;;;6097174;23;20380;-65
2021/06/24 01:39:05;;;;;;;5.65;4.20;;;16.50;99.90;;;;;;6107939;23;20387;-65
2021/06/24 01:41:31;;;;;;;6.13;4.30;;;16.30;99.90;;;;;;6107670;23;20207;-65
2021/06/24 01:43:56;;;;;;;4.90;4.33;;;16.50;99.90;;;;;;6107682;23;20396;-65
2021/06/24 01:46:22;;;;;;;6.10;4.97;;;16.30;99.90;;;;;;6120886;23;20163;-62
2021/06/24 01:48:48;;;;;;;7.17;4.70;;;16.40;99.90;;;;;;6107441;23;20152;-62
2021/06/24 01:51:14;;;;;;;6.90;4.53;;;16.40;99.90;;;;;;6107854;23;20166;-62
2021/06/24 01:53:40;;;;;;;7.80;4.47;;;16.30;99.90;;;;;;6107634;23;20392;-62
2021/06/24 01:56:05;;;;;;;8.43;6.70;;;16.20;99.90;;;;;;6098169;23;20499;-62
2021/06/24 01:58:31;;;;;;;8.20;5.57;;;16.10;99.90;;;;;;6107633;23;20589;-63
2021/06/24 02:00:59;;;;;;;5.70;5.20;;;16.00;99.90;;;;;;6106568;23;20575;-62
2021/06/24 02:03:25;;;;;;;6.10;5.00;;;16.10;99.90;;;;;;6107565;23;20187;-62
2021/06/24 02:05:56;;;;;;;4.95;4.45;;;16.10;99.90;;;;;;6107463;23;20391;-62
2021/06/24 02:08:24;;;;;;;8.70;5.27;;;16.20;99.90;;;;;;6107353;23;20199;-63
2021/06/24 02:10:50;;;;;;;7.87;5.07;;;16.20;99.90;;;;;;6107692;23;20383;-63
2021/06/24 02:13:16;;;;;;;5.70;4.60;;;16.20;99.90;;;;;;6107523;23;20430;-63
2021/06/24 02:15:42;;;;;;;6.20;5.40;;;16.20;99.90;;;;;;6096884;23;20400;-63
2021/06/24 02:18:09;;;;;;;6.47;4.53;;;16.10;99.90;;;;;;6097829;23;20623;-63
2021/06/24 02:20:36;;;;;;;4.93;4.53;;;15.90;99.90;;;;;;6107465;23;20412;-63
2021/06/24 02:23:01;;;;;;;7.17;4.93;;;16.10;99.90;;;;;;6107457;23;20517;-63
2021/06/24 02:25:27;;;;;;;5.20;4.13;;;16.20;99.90;;;;;;6107560;23;20435;-63
2021/06/24 02:27:54;;;;;;;7.13;4.83;;;16.30;99.90;;;;;;6107685;23;20957;-63
2021/06/24 02:30:20;;;;;;;8.17;4.57;;;16.30;99.90;;;;;;6108149;23;20427;-63
2021/06/24 02:32:46;;;;;;;5.18;4.78;;;16.30;99.90;;;;;;6108153;23;20649;-63
2021/06/24 02:35:14;;;;;;;5.37;4.87;;;16.20;99.90;;;;;;6108205;23;20234;-61
2021/06/24 02:37:41;;;;;;;7.13;4.80;;;16.10;99.90;;;;;;6107907;23;20423;-62
2021/06/24 02:40:09;;;;;;;5.90;4.50;;;16.00;99.90;;;;;;6107704;23;20419;-67
2021/06/24 02:42:35;;;;;;;7.80;5.00;;;15.90;99.90;;;;;;6107540;23;20498;-67
2021/06/24 02:45:03;;;;;;;10.90;5.30;;;16.00;99.90;;;;;;6098657;23;20474;-67
2021/06/24 02:47:28;;;;;;;7.93;4.87;;;16.10;99.90;;;;;;6097787;23;20427;-67
2021/06/24 02:49:54;;;;;;;6.77;4.83;;;16.20;99.90;;;;;;6107929;23;20402;-67
2021/06/24 02:52:20;;;;;;;9.67;5.07;;;16.50;99.90;;;;;;6108203;23;20156;-67
2021/06/24 02:54:45;;;;;;;6.73;4.90;;;16.50;99.90;;;;;;6098331;23;20495;-67
2021/06/24 02:57:11;;;;;;;8.10;4.80;;;16.60;99.90;;;;;;6121037;23;20176;-67
2021/06/24 02:59:37;;;;;;;7.93;5.10;;;17.00;99.90;;;;;;6099952;23;20470;-62
2021/06/24 03:02:03;;;;;;;8.20;5.03;;;17.10;99.20;;;;;;6109721;23;20166;-63
2021/06/24 03:04:29;;;;;;;8.83;5.30;;;17.10;37.00;;;;;;6100055;23;20167;-63
2021/06/24 03:06:54;;;;;;;5.03;4.43;;;16.70;67.80;;;;;;6099839;23;20442;-67
2021/06/24 03:09:20;;;;;;;8.60;5.40;;;16.50;99.90;;;;;;6109827;23;20165;-67
2021/06/24 03:11:47;;;;;;;6.40;5.17;;;16.20;99.90;;;;;;6109400;23;20151;-67
2021/06/24 03:14:13;;;;;;;7.07;5.40;;;16.10;99.90;;;;;;6109506;23;20615;-67
2021/06/24 03:16:40;;;;;;;12.50;5.50;;;16.00;99.90;;;;;;6108806;23;20408;-62
2021/06/24 03:19:06;;;;;;;5.37;4.87;;;16.10;99.90;;;;;;6109269;23;20399;-64
2021/06/24 03:21:32;;;;;;;6.10;4.83;;;16.00;99.90;;;;;;6109585;23;20406;-67
2021/06/24 03:23:58;;;;;;;8.53;5.47;;;16.00;99.90;;;;;;6122776;23;20718;-67
2021/06/24 03:26:23;;;;;;;12.20;5.50;;;16.00;99.90;;;;;;6108969;23;20419;-67
2021/06/24 03:28:49;;;;;;;6.63;5.33;;;16.10;99.90;;;;;;6099492;23;20190;-67
2021/06/24 03:31:15;;;;;;;10.70;5.07;;;16.30;99.90;;;;;;6109330;23;20590;-67
2021/06/24 03:33:40;;;;;;;7.80;4.97;;;16.30;99.90;;;;;;6109227;23;20188;-68
2021/06/24 03:36:06;;;;;;;5.70;4.60;;;16.60;99.90;;;;;;6122786;23;20267;-63
2021/06/24 03:38:32;;;;;;;8.13;4.20;;;16.60;99.90;;;;;;6109120;23;20572;-63
2021/06/24 03:40:58;;;;;;;9.23;5.33;;;16.60;99.90;;;;;;6099893;23;20406;-63
2021/06/24 03:43:24;;;;;;;12.13;6.17;;;16.60;99.90;;;;;;6109251;23;20530;-64
2021/06/24 03:45:49;;;;;;;7.87;5.23;;;16.70;99.90;;;;;;6100158;23;20242;-62
2021/06/24 03:48:15;;;;;;;5.80;5.20;;;16.60;99.90;;;;;;6099470;23;20767;-64
2021/06/24 03:50:41;;;;;;;5.83;4.80;;;16.90;99.90;;;;;;6099832;23;20231;-64
2021/06/24 03:53:06;;;;;;;8.30;6.00;;;17.20;99.90;;;;;;6108976;23;20156;-68
2021/06/24 03:55:37;;;;;;;7.10;5.20;;;17.50;59.00;;;;;;6108981;23;20431;-68
2021/06/24 03:58:05;;;;;;;12.47;4.43;;;17.60;1.00;;;;;;6109313;23;20136;-62
2021/06/24 04:00:37;;;;;;;7.50;4.33;;;17.10;79.30;;;;;;6099245;23;20391;-62
2021/06/24 04:03:03;;;;;;;5.80;4.73;;;16.80;99.90;;;;;;6099387;23;20372;-67
2021/06/24 04:05:31;;;;;;;5.63;4.57;;;17.10;99.90;;;;;;6099560;23;20392;-66
2021/06/24 04:07:59;;;;;;;8.50;6.33;;;17.30;90.40;;;;;;6099205;23;20423;-67
2021/06/24 04:10:25;;;;;;;5.17;4.67;;;17.50;51.90;;;;;;6108987;23;20392;-63
2021/06/24 04:12:51;;;;;;;7.27;5.20;;;17.70;1.10;;;;;;6108534;23;20394;-63
2021/06/24 04:15:17;;;;;;;8.70;5.17;;;17.70;1.00;;;;;;6107285;23;20387;-64
2021/06/24 04:17:42;;;;;;;5.00;4.40;;;18.00;1.00;;;;;;6098841;23;20163;-64
2021/06/24 04:20:09;;;;;;;9.90;5.60;;;18.40;1.00;;;;;;6108203;23;20434;-63
2021/06/24 04:22:34;;;;;;;7.87;5.07;;;18.90;1.00;;;;;;6098331;23;20597;-66
2021/06/24 04:25:00;;;;;;;7.67;5.70;;;18.60;99.90;;;;;;6121744;23;20486;-68
2021/06/24 04:27:26;;;;;;;7.87;5.90;;;17.90;1.00;;;;;;6121426;23;20714;-62
2021/06/24 04:29:51;;;;;;;6.53;5.77;;;17.50;1.00;;;;;;6108129;23;20190;-63
2021/06/24 04:32:17;;;;;;;9.60;5.07;;;17.50;1.00;;;;;;6108328;23;20151;-63
2021/06/24 04:34:42;;;;;;;9.93;6.20;;;17.80;1.00;;;;;;6108318;23;20514;-63
2021/06/24 04:37:08;;;;;;;5.20;4.70;;;17.90;1.00;;;;;;6108038;23;20235;-62
2021/06/24 04:39:33;;;;;;;10.03;5.90;;;17.50;1.00;;;;;;6121410;23;20171;-62
2021/06/24 04:41:59;;;;;;;10.77;6.07;;;16.90;17.80;;;;;;6108180;23;20601;-62
2021/06/24 04:44:25;;;;;;;6.43;5.40;;;16.90;75.40;;;;;;6098757;23;20230;-67
2021/06/24 04:46:50;;;;;;;11.50;5.23;;;16.70;93.00;;;;;;6108039;23;20222;-62
2021/06/24 04:49:17;;;;;;;6.63;5.40;;;16.60;99.90;;;;;;6108144;23;20571;-61
2021/06/24 04:51:43;;;;;;;7.60;5.83;;;16.80;99.90;;;;;;6098269;23;20595;-62
2021/06/24 04:54:09;;;;;;;9.00;5.33;;;17.10;67.50;;;;;;6108459;23;20455;-62
2021/06/24 04:56:34;;;;;;;6.63;5.20;;;17.30;1.00;;;;;;6108040;23;20403;-62
2021/06/24 04:59:00;;;;;;;6.93;5.20;;;17.30;1.00;;;;;;6108172;23;20155;-62
2021/06/24 05:01:25;;;;;;;7.13;4.27;;;17.40;1.00;;;;;;6098616;23;20466;-62
2021/06/24 05:03:51;;;;;;;12.70;6.30;;;18.00;1.00;;;;;;6098494;23;20459;-62
2021/06/24 05:06:17;;;;;;;8.23;6.00;;;18.10;1.00;;;;;;6121266;23;20587;-62
2021/06/24 05:08:43;;;;;;;6.83;5.60;;;18.10;1.00;;;;;;6098156;23;20559;-61
2021/06/24 05:11:09;;;;;;;7.30;5.30;;;17.60;1.00;;;;;;6108068;23;20223;-61
2021/06/24 05:13:34;;;;;;;7.00;5.53;;;17.40;1.00;;;;;;6098171;23;20387;-62
2021/06/24 05:16:00;;;;;;;7.47;5.00;;;17.30;1.00;;;;;;6121026;23;20163;-62
2021/06/24 05:18:26;;;;;;;7.97;5.40;;;16.80;1.00;;;;;;6108397;23;20536;-62
2021/06/24 05:20:52;;;;;;;7.67;6.13;;;16.80;1.00;;;;;;6098594;23;20387;-62
2021/06/24 05:23:18;;;;;;;11.23;7.60;;;16.90;1.00;;;;;;6121237;23;20391;-62
2021/06/24 05:25:45;;;;;;;9.43;5.80;;;17.00;1.00;;;;;;6108085;23;20246;-62
2021/06/24 05:28:11;;;;;;;5.63;4.83;;;17.10;1.00;;;;;;6107330;23;20917;-60
2021/06/24 05:30:38;;;;;;;7.50;4.60;;;16.90;1.00;;;;;;6098446;23;20668;-60
2021/06/24 05:33:04;;;;;;;5.10;4.33;;;16.70;1.00;;;;;;6107815;23;20679;-60
2021/06/24 05:35:30;;;;;;;7.80;5.70;;;16.50;1.00;;;;;;6107890;23;20187;-61
2021/06/24 05:37:57;;;;;;;6.80;4.80;;;16.70;1.00;;;;;;6098345;23;20395;-61
2021/06/24 05:40:23;;;;;;;4.87;4.13;;;17.10;1.00;;;;;;6107304;23;20388;-61
2021/06/24 05:42:49;;;;;;;7.37;3.90;;;17.20;1.00;;;;;;6107283;23;20406;-61
2021/06/24 05:45:16;;;;;;;4.30;3.10;;;16.70;1.00;;;;;;6107764;23;20170;-61
2021/06/24 05:47:41;;;;;;;5.23;3.93;;;16.70;1.00;;;;;;6107432;23;20427;-61
2021/06/24 05:50:08;;;;;;;5.40;3.80;;;16.50;1.00;;;;;;6107447;23;20446;-61
2021/06/24 05:52:35;;;;;;;8.23;4.23;;;16.50;1.00;;;;;;6107587;23;20187;-61
2021/06/24 05:55:01;;;;;;;8.43;4.20;;;16.70;1.00;;;;;;6107473;23;20388;-61
2021/06/24 05:57:26;;;;;;;6.47;4.07;;;16.80;1.00;;;;;;6107313;23;20387;-63
2021/06/24 05:59:54;;;;;;;6.50;4.00;;;17.00;1.00;;;;;;6097803;23;20203;-63
2021/06/24 06:02:20;;;;;;;6.03;3.77;;;17.00;1.00;;;;;;6107483;23;20457;-60
2021/06/24 06:04:46;;;;;;;5.00;3.80;;;17.10;1.00;;;;;;6107497;23;20399;-60
2021/06/24 06:07:11;;;;;;;6.10;4.20;;;17.00;1.00;;;;;;6107215;23;20183;-60
2021/06/24 06:09:37;;;;;;;6.77;4.40;;;17.10;1.00;;;;;;6107345;23;20502;-60
2021/06/24 06:12:05;;;;;;;5.63;4.60;;;17.20;1.00;;;;;;6107582;23;20222;-60
2021/06/24 06:14:30;;;;;;;8.73;3.70;;;17.80;1.00;;;;;;6098591;23;20159;-61
2021/06/24 06:16:56;;;;;;;8.07;4.40;;;18.40;99.90;;;;;;6107458;23;20414;-63
2021/06/24 06:19:21;;;;;;;7.03;4.50;;;18.50;1.00;;;;;;6107110;23;20167;-63
2021/06/24 06:21:47;;;;;;;3.77;3.47;;;18.80;1.00;;;;;;6107502;23;20232;-63
2021/06/24 06:24:12;;;;;;;5.80;4.27;;;19.50;1.00;;;;;;6097641;23;20551;-63
2021/06/24 06:26:38;;;;;;;3.83;3.53;;;18.90;1.00;;;;;;6107372;23;20194;-64
2021/06/24 06:29:04;;;;;;;6.73;3.67;;;19.40;1.00;;;;;;6107378;23;20152;-63
2021/06/24 06:31:39;;;;;;;4.20;3.77;;;20.00;99.90;;;;;;6107884;23;20160;-69
2021/06/24 06:34:06;;;;;;;7.80;4.27;;;19.50;9.30;;;;;;6099129;23;20663;-68
2021/06/24 06:36:32;;;;;;;6.97;3.57;;;19.00;1.00;;;;;;6109398;23;20450;-69
2021/06/24 06:38:58;;;;;;;4.73;3.80;;;19.10;43.70;;;;;;6109157;23;20388;-69
2021/06/24 06:41:24;;;;;;;6.80;3.93;;;20.10;1.00;;;;;;6099916;23;20450;-69
2021/06/24 06:43:49;;;;;;;7.23;3.80;;;20.10;1.00;;;;;;6109060;23;20155;-63
2021/06/24 06:46:15;;;;;;;10.00;4.60;;;20.60;1.00;;;;;;6108772;23;20162;-63
2021/06/24 06:48:41;;;;;;;4.83;3.87;;;21.50;99.90;;;;;;6122571;23;20250;-64
2021/06/24 06:51:06;;;;;;;5.20;4.10;;;22.20;1.00;;;;;;6109216;23;20594;-68
2021/06/24 06:53:32;;;;;;;7.63;4.53;;;22.60;1.00;;;;;;6108834;23;20515;-68
2021/06/24 06:55:58;;;;;;;6.50;3.47;;;23.90;99.90;;;;;;6109319;23;20166;-68
2021/06/24 06:58:23;;;;;;;5.93;3.37;;;24.80;1.00;;;;;;6108711;23;20160;-68
2021/06/24 07:00:49;;;;;;;5.17;4.43;;;24.00;20.10;;;;;;6108729;23;20159;-69
2021/06/24 07:03:15;;;;;;;4.77;3.37;;;24.20;11.30;;;;;;6099563;23;20235;-69
2021/06/24 07:05:40;;;;;;;4.30;3.03;;;24.90;1.00;;;;;;6108963;23;20167;-69
2021/06/24 07:08:06;;;;;;;5.17;3.77;;;24.40;1.00;;;;;;6099183;23;20195;-68
2021/06/24 07:10:32;;;;;;;4.13;3.00;;;24.90;1.00;;;;;;6108927;23;20162;-68
2021/06/24 07:12:57;;;;;;;3.70;3.13;;;26.90;1.00;;;;;;6108874;23;20198;-69
2021/06/24 07:15:23;;;;;;;3.30;3.10;;;26.80;1.00;;;;;;6109109;23;20395;-69
2021/06/24 07:17:49;;;;;;;4.50;2.70;;;26.70;1.00;;;;;;6108915;23;20178;-68
2021/06/24 07:20:15;;;;;;;3.40;3.10;;;27.30;1.00;;;;;;6108776;23;20691;-69
2021/06/24 07:22:41;;;;;;;4.10;3.17;;;26.50;1.00;;;;;;6107608;23;20610;-67
2021/06/24 07:25:08;;;;;;;5.43;3.10;;;25.20;1.00;;;;;;6108693;23;20411;-66
2021/06/24 07:27:34;;;;;;;3.67;2.77;;;26.00;1.00;;;;;;6098153;23;20274;-66
2021/06/24 07:29:59;;;;;;;4.97;3.53;;;26.70;1.00;;;;;;6099096;23;20407;-66
2021/06/24 07:32:25;;;;;;;3.87;2.77;;;26.60;1.00;;;;;;6108705;23;20156;-65
2021/06/24 07:34:50;;;;;;;3.30;2.70;;;26.50;1.00;;;;;;6108956;23;20207;-65
2021/06/24 07:37:16;;;;;;;3.47;2.80;;;25.90;1.00;;;;;;6108760;23;20160;-66
2021/06/24 07:39:42;;;;;;;4.30;2.90;;;25.90;1.00;;;;;;6122314;23;20167;-66
2021/06/24 07:42:07;;;;;;;2.97;2.67;;;25.40;1.00;;;;;;6109440;23;20226;-66
2021/06/24 07:44:33;;;;;;;5.27;3.17;;;24.20;1.00;;;;;;6107659;23;20152;-65
2021/06/24 07:46:59;;;;;;;3.93;2.30;;;24.30;1.00;;;;;;6107573;23;20430;-67
2021/06/24 07:52:08;;;;;;;4.00;2.47;;;23.80;8.40;;;;;;6108789;23;20443;-68
2021/06/24 07:54:34;;;;;;;5.57;3.37;;;23.70;51.60;;;;;;6108845;23;20838;-65
2021/06/24 07:57:00;;;;;;;4.90;3.10;;;23.70;1.00;;;;;;6108971;23;20184;-65
2021/06/24 07:59:25;;;;;;;2.70;2.40;;;23.70;1.00;;;;;;6108338;23;20159;-66
2021/06/24 08:01:51;;;;;;;3.13;2.37;;;24.20;1.00;;;;;;6108553;23;20223;-65
2021/06/24 08:04:16;;;;;;;2.90;2.70;;;24.70;1.00;;;;;;6108316;23;20163;-66
2021/06/24 08:06:42;;;;;;;3.20;2.60;;;24.50;1.00;;;;;;6098968;23;20195;-66
2021/06/24 08:09:11;;;;;;;6.33;3.30;;;24.40;1.00;;;;;;6107929;23;20222;-65
2021/06/24 08:11:37;;;;;;;3.57;3.20;;;24.10;1.00;;;;;;6098898;23;20148;-68
2021/06/24 08:16:47;;;;;;;3.00;2.70;;;24.20;1.00;;;;;;6108757;23;20399;-66
2021/06/24 08:19:12;;;;;;;4.87;3.77;;;23.80;1.00;;;;;;6107924;23;20803;-65
2021/06/24 08:21:38;;;;;;;4.50;3.07;;;23.70;1.00;;;;;;6108228;23;20403;-65
2021/06/24 08:24:04;;;;;;;3.27;2.97;;;23.60;1.00;;;;;;6108248;23;20159;-66
2021/06/24 08:26:30;;;;;;;5.83;3.60;;;23.60;1.00;;;;;;6108057;23;20579;-68
2021/06/24 08:28:56;;;;;;;4.80;2.97;;;23.30;20.00;;;;;;6108093;23;20406;-67
2021/06/24 08:31:21;;;;;;;4.00;3.33;;;23.50;1.00;;;;;;6108400;23;20152;-67
2021/06/24 08:33:47;;;;;;;4.00;3.03;;;23.10;1.00;;;;;;6108678;23;20398;-67
2021/06/24 08:36:12;;;;;;;3.93;3.63;;;23.40;1.00;;;;;;6108300;23;20156;-69
2021/06/24 08:38:38;;;;;;;3.90;3.40;;;22.90;16.50;;;;;;6107843;23;20242;-67
2021/06/24 08:41:04;;;;;;;3.80;3.03;;;22.60;99.90;;;;;;6108103;23;20238;-66
2021/06/24 08:43:29;;;;;;;3.50;2.90;;;22.50;99.90;;;;;;6108104;23;20159;-67
2021/06/24 08:45:59;;;;;;;7.00;3.83;;;23.00;24.70;;;;;;6108048;23;20298;-67
2021/06/24 08:48:25;;;;;;;6.33;3.30;;;23.30;17.40;;;;;;6107806;23;20179;-66
2021/06/24 08:50:51;;;;;;;3.80;3.30;;;23.50;97.40;;;;;;6107581;23;20474;-69
2021/06/24 08:53:18;;;;;;;3.63;2.90;;;23.70;6.00;;;;;;6098207;23;20650;-66
2021/06/24 08:55:46;;;;;;;3.80;2.77;;;23.40;1.00;;;;;;6097975;23;20231;-65
2021/06/24 08:58:13;;;;;;;5.80;3.90;;;22.90;29.10;;;;;;6107530;23;20395;-65
2021/06/24 09:00:39;;;;;;;4.80;3.93;;;22.90;99.90;;;;;;6107680;23;20478;-65
2021/06/24 09:03:16;;;;;;;4.30;3.27;;;23.20;99.30;;;;;;6107815;23;20733;-65
2021/06/24 09:05:48;;;;;;;3.00;2.73;;;23.70;7.70;;;;;;6098284;23;20158;-65
2021/06/24 09:08:37;;;;;;;8.37;3.97;;;23.80;1.00;;;;;;6107394;23;20429;-65
2021/06/24 09:11:13;;;;;;;6.07;3.53;;;23.50;5.20;;;;;;6098380;23;20475;-64
2021/06/24 09:13:40;;;;;;;3.83;3.20;;;23.80;11.10;;;;;;6109722;23;20452;-67
2021/06/24 09:16:41;;;;;;;5.27;4.20;;;24.10;1.00;;;;;;6110229;23;20399;-65
2021/06/24 09:19:18;;;;;;;6.27;4.00;;;24.00;1.00;;;;;;6097288;23;20392;-65
2021/06/24 09:22:10;;;;;;;4.30;3.37;;;23.30;1.00;;;;;;6098067;23;20441;-68
2021/06/24 09:24:37;;;;;;;4.27;3.13;;;23.90;1.00;;;;;;6107786;23;20402;-66
2021/06/24 09:27:05;;;;;;;3.60;3.30;;;24.10;1.00;;;;;;6097335;23;20427;-64
2021/06/24 09:29:33;;;;;;;5.67;3.40;;;23.70;1.00;;;;;;6106768;23;20403;-67
2021/06/24 09:31:59;;;;;;;4.20;3.87;;;23.80;1.00;;;;;;6098073;23;20532;-67
2021/06/24 09:34:26;;;;;;;4.13;3.67;;;24.00;1.00;;;;;;6097889;23;20866;-66
2021/06/24 09:37:00;;;;;;;3.40;3.10;;;24.10;1.00;;;;;;6097092;23;20398;-67
2021/06/24 09:39:37;;;;;;;5.30;3.83;;;24.90;1.00;;;;;;6121463;23;20387;-67
2021/06/24 09:42:07;;;;;;;6.13;3.17;;;24.80;1.00;;;;;;6099132;23;20394;-67
2021/06/24 09:44:34;;;;;;;4.57;3.10;;;25.00;1.00;;;;;;6099078;23;20439;-66
2021/06/24 09:47:01;;;;;;;5.33;2.97;;;24.60;1.00;;;;;;6097600;23;20957;-66
2021/06/24 09:49:34;;;;;;;4.33;3.37;;;23.90;1.00;;;;;;6106617;23;20394;-65
2021/06/24 09:52:02;;;;;;;3.20;2.90;;;23.90;1.00;;;;;;6120151;23;20479;-65
2021/06/24 09:54:37;;;;;;;5.67;3.53;;;23.70;32.90;;;;;;6107216;23;20383;-65
2021/06/24 09:57:05;;;;;;;3.50;3.20;;;23.20;99.90;;;;;;6097090;23;20396;-65
2021/06/24 09:59:33;;;;;;;4.10;3.73;;;23.30;99.90;;;;;;6097087;23;20486;-65
2021/06/24 10:02:06;;;;;;;8.70;3.50;;;22.90;99.90;;;;;;6098248;23;20396;-65
2021/06/24 10:04:32;;;;;;;4.00;3.33;;;22.90;99.90;;;;;;6098108;23;20372;-65
2021/06/24 10:07:00;;;;;;;3.67;2.90;;;22.80;99.90;;;;;;6107136;23;20523;-66
2021/06/24 10:09:27;;;;;;;4.37;3.23;;;22.80;99.90;;;;;;6072548;23;20170;-65
2021/06/24 10:11:54;;;;;;;3.97;3.07;;;22.80;99.90;;;;;;6120710;23;20395;-65
2021/06/24 10:14:20;;;;;;;3.87;3.43;;;22.70;99.90;;;;;;6107282;23;20878;-65
2021/06/24 10:17:12;;;;;;;6.17;3.10;;;22.60;99.90;;;;;;6097517;23;20398;-65
2021/06/24 10:19:40;;;;;;;4.97;3.53;;;22.70;99.90;;;;;;6095188;23;20411;-65
2021/06/24 10:22:11;;;;;;;5.10;3.00;;;22.50;99.90;;;;;;6097488;23;20397;-65
2021/06/24 10:24:43;;;;;;;3.70;3.40;;;22.70;99.90;;;;;;6107441;23;20403;-65
2021/06/24 10:27:10;;;;;;;4.27;3.80;;;22.50;99.90;;;;;;6106958;23;20416;-65
2021/06/24 10:29:45;;;;;;;3.87;3.00;;;21.40;1.00;;;;;;6107859;23;20419;-64
2021/06/24 10:32:31;;;;;;;3.40;2.83;;;21.70;1.00;;;;;;6121281;23;20387;-64
2021/06/24 10:35:01;;;;;;;4.67;3.30;;;22.00;99.90;;;;;;6120965;23;20482;-66
2021/06/24 10:37:28;;;;;;;4.20;3.80;;;22.30;99.90;;;;;;6107413;23;20387;-65
2021/06/24 10:40:35;;;;;;;4.13;3.77;;;22.20;99.90;;;;;;6097579;23;20478;-65
2021/06/24 10:43:04;;;;;;;4.50;3.90;;;21.10;22.20;;;;;;6107782;23;20395;-64
2021/06/24 10:45:31;;;;;;;4.70;4.30;;;20.70;1.00;;;;;;6107575;23;20383;-64
2021/06/24 10:47:58;;;;;;;4.20;3.80;;;20.90;1.00;;;;;;6107104;23;20431;-64
2021/06/24 10:50:27;;;;;;;6.20;3.90;;;21.30;99.90;;;;;;6106294;23;20709;-63
2021/06/24 10:52:58;;;;;;;4.63;4.17;;;20.90;99.90;;;;;;6095909;23;20761;-63
2021/06/24 10:55:39;;;;;;;4.20;3.80;;;20.80;99.90;;;;;;6106410;23;20446;-63
2021/06/24 10:58:11;;;;;;;13.00;3.93;;;21.40;1.00;;;;;;6107267;23;20402;-63
2021/06/24 11:00:43;;;;;;;4.70;3.80;;;22.40;99.90;;;;;;6107157;23;20759;-64
2021/06/24 11:03:11;;;;;;;4.33;3.63;;;22.70;99.90;;;;;;6096328;23;20398;-64
2021/06/24 11:05:43;;;;;;;6.83;4.90;;;22.20;99.90;;;;;;6097558;23;20402;-64
2021/06/24 11:08:13;;;;;;;5.57;4.20;;;22.40;99.90;;;;;;6106646;23;20423;-64
2021/06/24 11:10:58;;;;;;;6.03;4.97;;;22.60;99.90;;;;;;6097573;23;20378;-64
2021/06/24 11:13:36;;;;;;;5.97;5.27;;;22.90;99.90;;;;;;6106951;23;20391;-64
2021/06/24 11:16:13;;;;;;;4.77;4.33;;;22.70;99.90;;;;;;6097529;23;20450;-64
2021/06/24 11:18:46;;;;;;;4.87;4.37;;;23.50;71.90;;;;;;6105764;23;20701;-63
2021/06/24 11:21:23;;;;;;;5.47;4.63;;;22.70;43.80;;;;;;6099320;23;20446;-68
2021/06/24 11:23:54;;;;;;;4.80;4.40;;;23.40;1.00;;;;;;6108496;23;20379;-63
2021/06/24 11:26:31;;;;;;;8.80;4.30;;;24.10;1.00;;;;;;6098774;23;20878;-67
2021/06/24 11:29:09;;;;;;;5.20;4.50;;;24.90;1.00;;;;;;6097908;23;20395;-67
2021/06/24 11:31:46;;;;;;;6.90;3.83;;;24.90;1.00;;;;;;6099202;23;20418;-66
2021/06/24 11:37:00;;;;;;;4.23;3.70;;;25.40;1.00;;;;;;6108904;23;20402;-68
2021/06/24 11:39:32;;;;;;;3.97;3.27;;;25.70;1.00;;;;;;6108349;23;20426;-67
2021/06/24 11:42:16;;;;;;;4.80;3.57;;;25.40;1.00;;;;;;6122094;23;20691;-66
2021/06/24 11:44:49;;;;;;;4.97;4.10;;;23.80;1.00;;;;;;6108426;23;20755;-67
2021/06/24 11:47:22;;;;;;;4.20;3.40;;;23.00;1.00;;;;;;6108284;23;20427;-67
2021/06/24 12:04:06;;;;;;;4.93;4.43;;;22.80;91.50;;;;;;6108361;23;20392;-67
2021/06/24 12:06:44;;;;;;;4.10;3.70;;;22.80;6.10;;;;;;6108045;23;20152;-67
2021/06/24 12:09:10;;;;;;;4.33;3.80;;;23.00;22.80;;;;;;6098001;23;20931;-67
2021/06/24 12:11:38;;;;;;;5.17;4.67;;;22.70;99.90;;;;;;6108275;23;20415;-66
2021/06/24 12:14:22;;;;;;;5.13;4.37;;;22.50;99.90;;;;;;6108211;23;20388;-66
2021/06/24 12:17:17;;;;;;;4.73;4.13;;;22.40;99.90;;;;;;6108282;23;20398;-67
2021/06/24 12:19:59;;;;;;;5.00;3.63;;;22.30;99.90;;;;;;6108071;23;20696;-66
2021/06/24 12:22:31;;;;;;;4.80;3.50;;;22.50;99.90;;;;;;6098722;23;20674;-66
2021/06/24 12:24:58;;;;;;;5.23;4.20;;;22.50;99.90;;;;;;6107427;23;20880;-69
2021/06/24 12:27:34;;;;;;;4.47;3.80;;;22.60;99.90;;;;;;6097954;23;20435;-68
2021/06/24 12:30:08;;;;;;;6.43;3.83;;;23.10;3.90;;;;;;6107642;23;20375;-67
2021/06/24 12:32:34;;;;;;;5.23;4.47;;;22.70;99.90;;;;;;6121409;23;20419;-65
2021/06/24 12:35:00;;;;;;;6.63;4.07;;;22.10;99.90;;;;;;6107973;23;20395;-65
2021/06/24 12:37:44;;;;;;;7.73;5.20;;;22.00;99.90;;;;;;6107923;23;20474;-67
2021/06/24 12:40:15;;;;;;;7.43;4.60;;;21.90;99.90;;;;;;6107890;23;20485;-69
2021/06/24 12:42:56;;;;;;;4.77;4.37;;;22.40;99.90;;;;;;6108217;23;20751;-68
2021/06/24 12:45:27;;;;;;;5.13;4.60;;;23.00;6.20;;;;;;6098272;23;20383;-67
2021/06/24 12:47:55;;;;;;;5.03;4.30;;;22.50;99.90;;;;;;6107797;23;20866;-67
2021/06/24 12:50:22;;;;;;;5.30;4.80;;;22.60;99.90;;;;;;6098538;23;20462;-71
2021/06/24 12:52:56;;;;;;;4.83;4.27;;;23.00;86.00;;;;;;6096975;23;20398;-70
2021/06/24 12:55:38;;;;;;;4.23;3.83;;;21.70;99.90;;;;;;6121111;23;20838;-69
2021/06/24 12:58:24;;;;;;;7.43;4.33;;;21.50;1.00;;;;;;6107869;23;20830;-72
2021/06/24 13:01:08;;;;;;;4.67;4.27;;;21.50;1.00;;;;;;6089222;23;20414;-68
2021/06/24 13:03:44;;;;;;;3.73;3.43;;;21.90;1.00;;;;;;6098414;23;20438;-68
2021/06/24 13:06:19;;;;;;;5.03;4.60;;;22.50;99.90;;;;;;6107722;23;20454;-68
2021/06/24 13:08:57;;;;;;;3.83;3.40;;;22.10;99.90;;;;;;6107316;23;20423;-69
2021/06/24 13:11:26;;;;;;;4.20;3.80;;;22.30;99.90;;;;;;6107530;23;20673;-70
2021/06/24 13:14:00;;;;;;;4.30;3.90;;;21.30;1.00;;;;;;6107492;23;20391;-70
2021/06/24 13:16:32;;;;;;;5.13;3.70;;;21.20;1.00;;;;;;6107741;23;20390;-70
2021/06/24 13:19:01;;;;;;;3.90;3.30;;;21.20;1.00;;;;;;6107363;23;20392;-70